QFA533 YBBN-YSSY
Flight info
| Callsign | QFA533 |
|---|---|
| Flight time | N/A |
| Altitude | 36000 |
| Route | BN H91 IGDAM H652 TESAT |
| Aircraft | A21N/M-SDE3FGHIRWY/LB1 |
Departure
| Time | 2026-05-06 04:03 |
|---|---|
| Airport | Brisbane International Airport (YBBN) |
Arrival
| Time | N/A |
|---|---|
| Airport | Sydney Kingsford Smith International Airport (YSSY) |
| Time | Latitude | Longitude | Altitude | Speed | Heading |
|---|---|---|---|---|---|
| 2026-05-06 03:40 | -27.38296 | 153.12288 | 22 ft | 0 kts | 259° |
| 2026-05-06 03:49 | -27.38295 | 153.12289 | 22 ft | 1 kts | 259° |
| 2026-05-06 03:50 | -27.38293 | 153.12305 | 22 ft | 2 kts | 259° |
| 2026-05-06 03:50 | -27.38290 | 153.12320 | 22 ft | 2 kts | 259° |
| 2026-05-06 03:50 | -27.38288 | 153.12335 | 22 ft | 2 kts | 259° |
| 2026-05-06 03:50 | -27.38285 | 153.12352 | 22 ft | 2 kts | 259° |
| 2026-05-06 03:51 | -27.38282 | 153.12369 | 22 ft | 2 kts | 273° |
| 2026-05-06 03:51 | -27.38287 | 153.12384 | 22 ft | 2 kts | 304° |
| 2026-05-06 03:51 | -27.38298 | 153.12396 | 22 ft | 2 kts | 334° |
| 2026-05-06 03:51 | -27.38312 | 153.12399 | 22 ft | 2 kts | 355° |
| 2026-05-06 03:52 | -27.38327 | 153.12402 | 22 ft | 2 kts | 347° |
| 2026-05-06 03:52 | -27.38342 | 153.12405 | 22 ft | 2 kts | 350° |
| 2026-05-06 03:52 | -27.38356 | 153.12408 | 22 ft | 1 kts | 349° |
| 2026-05-06 03:52 | -27.38357 | 153.12408 | 22 ft | 0 kts | 349° |
| 2026-05-06 03:55 | -27.38356 | 153.12408 | 22 ft | 0 kts | 349° |
| 2026-05-06 03:55 | -27.38351 | 153.12407 | 22 ft | 0 kts | 349° |
| 2026-05-06 03:55 | -27.38346 | 153.12407 | 22 ft | 1 kts | 349° |
| 2026-05-06 03:56 | -27.38325 | 153.12402 | 22 ft | 4 kts | 351° |
| 2026-05-06 03:56 | -27.38287 | 153.12410 | 22 ft | 6 kts | 38° |
| 2026-05-06 03:56 | -27.38280 | 153.12471 | 22 ft | 9 kts | 111° |
| 2026-05-06 03:56 | -27.38317 | 153.12544 | 22 ft | 11 kts | 121° |
| 2026-05-06 03:57 | -27.38375 | 153.12622 | 22 ft | 13 kts | 142° |
| 2026-05-06 03:57 | -27.38469 | 153.12630 | 22 ft | 15 kts | 204° |
| 2026-05-06 03:57 | -27.38567 | 153.12575 | 22 ft | 16 kts | 208° |
| 2026-05-06 03:57 | -27.38676 | 153.12512 | 22 ft | 18 kts | 206° |
| 2026-05-06 03:58 | -27.38796 | 153.12442 | 22 ft | 20 kts | 207° |
| 2026-05-06 03:58 | -27.38925 | 153.12370 | 22 ft | 21 kts | 206° |
| 2026-05-06 03:58 | -27.39058 | 153.12297 | 22 ft | 22 kts | 207° |
| 2026-05-06 03:58 | -27.39192 | 153.12218 | 22 ft | 23 kts | 207° |
| 2026-05-06 03:59 | -27.39341 | 153.12132 | 22 ft | 24 kts | 206° |
| 2026-05-06 03:59 | -27.39493 | 153.12045 | 22 ft | 25 kts | 206° |
| 2026-05-06 03:59 | -27.39650 | 153.11954 | 22 ft | 26 kts | 206° |
| 2026-05-06 03:59 | -27.39814 | 153.11861 | 22 ft | 27 kts | 207° |
| 2026-05-06 04:00 | -27.39982 | 153.11768 | 22 ft | 27 kts | 206° |
| 2026-05-06 04:00 | -27.40153 | 153.11670 | 22 ft | 28 kts | 207° |
| 2026-05-06 04:00 | -27.40230 | 153.11626 | 22 ft | 9 kts | 205° |
| 2026-05-06 04:00 | -27.40292 | 153.11627 | 22 ft | 9 kts | 142° |
| 2026-05-06 04:01 | -27.40307 | 153.11649 | 21 ft | 1 kts | 116° |
| 2026-05-06 04:01 | -27.40313 | 153.11662 | 21 ft | 3 kts | 111° |
| 2026-05-06 04:01 | -27.40319 | 153.11726 | 21 ft | 12 kts | 84° |
| 2026-05-06 04:01 | -27.40267 | 153.11830 | 21 ft | 19 kts | 31° |
| 2026-05-06 04:02 | -27.40130 | 153.11906 | 21 ft | 24 kts | 27° |
| 2026-05-06 04:02 | -27.39957 | 153.12004 | 22 ft | 33 kts | 27° |
| 2026-05-06 04:02 | -27.39544 | 153.12241 | 22 ft | 102 kts | 27° |
| 2026-05-06 04:02 | -27.38722 | 153.12707 | 21 ft | 163 kts | 28° |
| 2026-05-06 04:03 | -27.37637 | 153.13319 | 497 ft | 175 kts | 30° |
| 2026-05-06 04:03 | -27.36668 | 153.14011 | 1318 ft | 163 kts | 54° |
| 2026-05-06 04:03 | -27.36282 | 153.15123 | 1987 ft | 155 kts | 92° |
| 2026-05-06 04:03 | -27.36548 | 153.16296 | 2298 ft | 163 kts | 124° |
| 2026-05-06 04:04 | -27.37412 | 153.17156 | 2616 ft | 175 kts | 156° |
| 2026-05-06 04:04 | -27.38670 | 153.17288 | 2897 ft | 195 kts | 194° |
| 2026-05-06 04:04 | -27.39833 | 153.16385 | 3173 ft | 220 kts | 230° |
| 2026-05-06 04:04 | -27.40734 | 153.14893 | 3562 ft | 237 kts | 234° |
| 2026-05-06 04:05 | -27.41675 | 153.13290 | 3933 ft | 254 kts | 229° |
| 2026-05-06 04:05 | -27.43037 | 153.12074 | 4340 ft | 262 kts | 198° |
| 2026-05-06 04:05 | -27.44814 | 153.11678 | 5131 ft | 260 kts | 185° |
| 2026-05-06 04:05 | -27.46603 | 153.11478 | 5912 ft | 261 kts | 185° |
| 2026-05-06 04:06 | -27.48417 | 153.11244 | 6652 ft | 264 kts | 187° |
| 2026-05-06 04:06 | -27.50210 | 153.10962 | 7379 ft | 266 kts | 189° |
| 2026-05-06 04:06 | -27.52048 | 153.10632 | 8107 ft | 268 kts | 190° |
| 2026-05-06 04:06 | -27.53859 | 153.10284 | 8797 ft | 271 kts | 191° |
| 2026-05-06 04:07 | -27.55717 | 153.09911 | 9472 ft | 273 kts | 192° |
| 2026-05-06 04:07 | -27.57586 | 153.09528 | 10118 ft | 277 kts | 192° |
| 2026-05-06 04:07 | -27.59492 | 153.09129 | 10609 ft | 286 kts | 193° |
| 2026-05-06 04:07 | -27.61500 | 153.08705 | 10889 ft | 302 kts | 193° |
| 2026-05-06 04:08 | -27.63626 | 153.08255 | 11174 ft | 313 kts | 193° |
| 2026-05-06 04:08 | -27.65782 | 153.07800 | 11472 ft | 318 kts | 193° |
| 2026-05-06 04:08 | -27.67940 | 153.07346 | 11802 ft | 320 kts | 193° |
| 2026-05-06 04:08 | -27.70164 | 153.06877 | 12328 ft | 325 kts | 193° |
| 2026-05-06 04:09 | -27.72387 | 153.06407 | 12945 ft | 327 kts | 193° |
| 2026-05-06 04:09 | -27.74632 | 153.05933 | 13543 ft | 329 kts | 193° |
| 2026-05-06 04:09 | -27.76869 | 153.05460 | 14114 ft | 332 kts | 193° |
| 2026-05-06 04:09 | -27.79131 | 153.04977 | 14680 ft | 334 kts | 194° |
| 2026-05-06 04:10 | -27.81407 | 153.04375 | 15242 ft | 335 kts | 199° |
| 2026-05-06 04:10 | -27.82641 | 153.03964 | 15547 ft | 336 kts | 201° |
| 2026-05-06 04:10 | -27.84836 | 153.03084 | 16088 ft | 337 kts | 204° |
| 2026-05-06 04:10 | -27.87016 | 153.02130 | 16619 ft | 339 kts | 204° |
| 2026-05-06 04:11 | -27.89211 | 153.01161 | 17133 ft | 341 kts | 204° |
| 2026-05-06 04:11 | -27.91443 | 153.00177 | 17640 ft | 343 kts | 204° |
| 2026-05-06 04:11 | -27.93661 | 152.99200 | 18128 ft | 346 kts | 204° |
| 2026-05-06 04:11 | -27.95920 | 152.98209 | 18632 ft | 347 kts | 204° |
| 2026-05-06 04:12 | -27.98160 | 152.97227 | 19114 ft | 349 kts | 204° |
| 2026-05-06 04:12 | -28.00420 | 152.96236 | 19570 ft | 351 kts | 205° |
| 2026-05-06 04:12 | -28.02699 | 152.95236 | 20016 ft | 353 kts | 205° |
| 2026-05-06 04:12 | -28.04988 | 152.94232 | 20451 ft | 355 kts | 205° |
| 2026-05-06 04:13 | -28.07284 | 152.93224 | 20879 ft | 357 kts | 205° |
| 2026-05-06 04:13 | -28.09607 | 152.92201 | 21298 ft | 359 kts | 205° |
| 2026-05-06 04:13 | -28.11936 | 152.91167 | 21710 ft | 361 kts | 205° |
| 2026-05-06 04:13 | -28.14276 | 152.90124 | 22115 ft | 363 kts | 205° |
| 2026-05-06 04:14 | -28.16612 | 152.89084 | 22506 ft | 365 kts | 205° |
| 2026-05-06 04:14 | -28.18955 | 152.88040 | 22886 ft | 366 kts | 205° |
| 2026-05-06 04:14 | -28.21344 | 152.86977 | 23265 ft | 368 kts | 205° |
| 2026-05-06 04:14 | -28.23733 | 152.85915 | 23634 ft | 370 kts | 205° |
| 2026-05-06 04:15 | -28.26112 | 152.84854 | 23993 ft | 372 kts | 205° |
| 2026-05-06 04:15 | -28.28535 | 152.83775 | 24349 ft | 374 kts | 205° |
| 2026-05-06 04:15 | -28.30928 | 152.82709 | 24693 ft | 375 kts | 206° |
| 2026-05-06 04:15 | -28.33372 | 152.81619 | 25035 ft | 377 kts | 206° |
| 2026-05-06 04:16 | -28.35802 | 152.80534 | 25362 ft | 379 kts | 206° |
| 2026-05-06 04:16 | -28.38281 | 152.79430 | 25687 ft | 380 kts | 206° |
| 2026-05-06 04:16 | -28.40738 | 152.78331 | 26000 ft | 382 kts | 206° |
| 2026-05-06 04:16 | -28.43184 | 152.77239 | 26304 ft | 383 kts | 206° |
| 2026-05-06 04:17 | -28.45650 | 152.76137 | 26605 ft | 385 kts | 206° |
| 2026-05-06 04:17 | -28.48142 | 152.75021 | 26897 ft | 386 kts | 206° |
| 2026-05-06 04:17 | -28.50655 | 152.73898 | 27181 ft | 388 kts | 206° |
| 2026-05-06 04:17 | -28.53154 | 152.72780 | 27457 ft | 390 kts | 206° |
| 2026-05-06 04:18 | -28.55677 | 152.71649 | 27731 ft | 391 kts | 206° |
| 2026-05-06 04:18 | -28.58190 | 152.70523 | 28001 ft | 393 kts | 206° |
| 2026-05-06 04:18 | -28.60735 | 152.69383 | 28273 ft | 394 kts | 206° |
| 2026-05-06 04:18 | -28.63302 | 152.68231 | 28541 ft | 395 kts | 206° |
| 2026-05-06 04:19 | -28.65833 | 152.67096 | 28802 ft | 397 kts | 206° |
| 2026-05-06 04:19 | -28.68406 | 152.65942 | 29056 ft | 398 kts | 206° |
| 2026-05-06 04:19 | -28.70990 | 152.64781 | 29305 ft | 400 kts | 206° |
| 2026-05-06 04:19 | -28.73573 | 152.63620 | 29553 ft | 401 kts | 207° |
| 2026-05-06 04:20 | -28.76162 | 152.62457 | 29794 ft | 403 kts | 207° |
| 2026-05-06 04:20 | -28.78781 | 152.61279 | 30004 ft | 405 kts | 207° |
| 2026-05-06 04:20 | -28.81391 | 152.60104 | 30219 ft | 407 kts | 207° |
| 2026-05-06 04:20 | -28.83979 | 152.58899 | 30444 ft | 407 kts | 209° |
| 2026-05-06 04:21 | -28.86524 | 152.57538 | 30671 ft | 406 kts | 212° |
| 2026-05-06 04:21 | -28.89045 | 152.56061 | 30892 ft | 407 kts | 212° |
| 2026-05-06 04:21 | -28.91558 | 152.54567 | 31108 ft | 408 kts | 212° |
| 2026-05-06 04:21 | -28.94062 | 152.53075 | 31360 ft | 408 kts | 213° |
| 2026-05-06 04:22 | -28.96535 | 152.51601 | 31651 ft | 407 kts | 213° |
| 2026-05-06 04:22 | -28.99047 | 152.50105 | 31957 ft | 405 kts | 213° |
| 2026-05-06 04:22 | -29.01526 | 152.48630 | 32261 ft | 404 kts | 213° |
| 2026-05-06 04:23 | -29.06493 | 152.45671 | 32846 ft | 401 kts | 213° |
| 2026-05-06 04:23 | -29.08944 | 152.44208 | 33123 ft | 400 kts | 213° |
| 2026-05-06 04:23 | -29.11416 | 152.42732 | 33399 ft | 399 kts | 214° |
| 2026-05-06 04:23 | -29.13870 | 152.41267 | 33664 ft | 398 kts | 214° |
| 2026-05-06 04:24 | -29.16309 | 152.39810 | 33915 ft | 397 kts | 214° |
| 2026-05-06 04:24 | -29.18743 | 152.38354 | 34148 ft | 397 kts | 214° |
| 2026-05-06 04:24 | -29.21186 | 152.36891 | 34347 ft | 397 kts | 214° |
| 2026-05-06 04:24 | -29.23615 | 152.35435 | 34518 ft | 398 kts | 214° |
| 2026-05-06 04:25 | -29.26079 | 152.33958 | 34701 ft | 399 kts | 214° |
| 2026-05-06 04:25 | -29.28499 | 152.32509 | 34902 ft | 399 kts | 214° |
| 2026-05-06 04:25 | -29.30978 | 152.31023 | 35097 ft | 400 kts | 214° |
| 2026-05-06 04:25 | -29.33409 | 152.29564 | 35268 ft | 401 kts | 214° |
| 2026-05-06 04:26 | -29.35872 | 152.28087 | 35435 ft | 402 kts | 214° |
| 2026-05-06 04:26 | -29.38353 | 152.26596 | 35602 ft | 402 kts | 214° |
| 2026-05-06 04:26 | -29.40837 | 152.25105 | 35782 ft | 403 kts | 214° |
| 2026-05-06 04:26 | -29.43318 | 152.23614 | 35966 ft | 403 kts | 214° |
| 2026-05-06 04:27 | -29.45758 | 152.22148 | 36072 ft | 404 kts | 214° |
| 2026-05-06 04:27 | -29.50748 | 152.19145 | 36091 ft | 403 kts | 214° |
| 2026-05-06 04:28 | -29.55681 | 152.16176 | 36105 ft | 404 kts | 214° |
| 2026-05-06 04:28 | -29.60650 | 152.13181 | 36112 ft | 404 kts | 214° |
| 2026-05-06 04:29 | -29.65582 | 152.10249 | 36115 ft | 406 kts | 212° |
| 2026-05-06 04:29 | -29.70814 | 152.07736 | 36116 ft | 411 kts | 206° |
| 2026-05-06 04:30 | -29.76301 | 152.05853 | 36117 ft | 417 kts | 201° |
| 2026-05-06 04:30 | -29.81932 | 152.04366 | 36117 ft | 417 kts | 200° |
| 2026-05-06 04:31 | -29.87588 | 152.02899 | 36117 ft | 418 kts | 200° |
| 2026-05-06 04:31 | -29.93253 | 152.01422 | 36117 ft | 418 kts | 200° |
| 2026-05-06 04:32 | -29.98906 | 151.99945 | 36117 ft | 418 kts | 200° |
| 2026-05-06 04:32 | -30.04548 | 151.98469 | 36117 ft | 418 kts | 200° |
| 2026-05-06 04:33 | -30.10185 | 151.96991 | 36117 ft | 418 kts | 200° |
| 2026-05-06 04:33 | -30.15846 | 151.95506 | 36117 ft | 418 kts | 200° |
| 2026-05-06 04:34 | -30.21512 | 151.94020 | 36117 ft | 418 kts | 200° |
| 2026-05-06 04:34 | -30.27156 | 151.92535 | 36117 ft | 419 kts | 200° |
| 2026-05-06 04:35 | -30.32749 | 151.90804 | 36116 ft | 414 kts | 205° |
| 2026-05-06 04:35 | -30.38089 | 151.88490 | 36117 ft | 410 kts | 208° |
| 2026-05-06 04:36 | -30.43349 | 151.86038 | 36117 ft | 410 kts | 209° |
| 2026-05-06 04:36 | -30.48626 | 151.83575 | 36117 ft | 411 kts | 208° |
| 2026-05-06 04:37 | -30.53900 | 151.81114 | 36117 ft | 411 kts | 208° |
| 2026-05-06 04:37 | -30.59193 | 151.78644 | 36117 ft | 411 kts | 208° |
| 2026-05-06 04:38 | -30.64478 | 151.76175 | 36117 ft | 411 kts | 208° |
| 2026-05-06 04:38 | -30.69778 | 151.73697 | 36117 ft | 411 kts | 208° |
| 2026-05-06 04:39 | -30.75042 | 151.71233 | 36117 ft | 411 kts | 208° |
| 2026-05-06 04:39 | -30.80353 | 151.68742 | 36117 ft | 411 kts | 208° |
| 2026-05-06 04:40 | -30.85634 | 151.66264 | 36117 ft | 411 kts | 208° |
| 2026-05-06 04:40 | -30.90933 | 151.63776 | 36117 ft | 411 kts | 208° |
| 2026-05-06 04:41 | -30.96197 | 151.61301 | 36118 ft | 409 kts | 209° |
| 2026-05-06 04:41 | -31.01436 | 151.58835 | 36118 ft | 407 kts | 209° |
| 2026-05-06 04:42 | -31.06654 | 151.56375 | 36117 ft | 406 kts | 209° |
| 2026-05-06 04:42 | -31.11888 | 151.53903 | 36117 ft | 405 kts | 209° |
| 2026-05-06 04:43 | -31.17071 | 151.51453 | 36117 ft | 406 kts | 209° |
| 2026-05-06 04:43 | -31.22286 | 151.48985 | 36117 ft | 406 kts | 209° |
| 2026-05-06 04:44 | -31.27508 | 151.46513 | 36106 ft | 405 kts | 209° |
| 2026-05-06 04:44 | -31.32717 | 151.44046 | 36097 ft | 406 kts | 209° |
| 2026-05-06 04:45 | -31.37940 | 151.41565 | 36093 ft | 406 kts | 209° |
| 2026-05-06 04:45 | -31.43183 | 151.39175 | 36091 ft | 407 kts | 208° |
| 2026-05-06 04:46 | -31.48463 | 151.36832 | 36091 ft | 407 kts | 208° |
| 2026-05-06 04:46 | -31.53753 | 151.34473 | 36093 ft | 407 kts | 208° |
| 2026-05-06 04:47 | -31.59041 | 151.32109 | 36091 ft | 407 kts | 208° |
| 2026-05-06 04:47 | -31.64311 | 151.29750 | 36090 ft | 407 kts | 208° |
| 2026-05-06 04:48 | -31.69558 | 151.27397 | 36090 ft | 407 kts | 208° |
| 2026-05-06 04:48 | -31.74857 | 151.25018 | 36090 ft | 407 kts | 208° |
| 2026-05-06 04:49 | -31.80104 | 151.22661 | 36090 ft | 407 kts | 208° |
| 2026-05-06 04:49 | -31.85386 | 151.20285 | 36090 ft | 407 kts | 208° |
| 2026-05-06 04:50 | -31.90682 | 151.17899 | 36090 ft | 408 kts | 208° |
| 2026-05-06 04:50 | -31.95948 | 151.15526 | 36090 ft | 409 kts | 208° |
| 2026-05-06 04:51 | -32.01265 | 151.13139 | 36090 ft | 409 kts | 208° |
| 2026-05-06 04:51 | -32.06549 | 151.10770 | 36090 ft | 410 kts | 208° |
| 2026-05-06 04:52 | -32.11677 | 151.08466 | 36091 ft | 411 kts | 208° |
| 2026-05-06 04:52 | -32.15333 | 151.06822 | 36090 ft | 411 kts | 208° |
| 2026-05-06 04:53 | -32.20459 | 151.04517 | 36090 ft | 412 kts | 208° |
| 2026-05-06 04:53 | -32.25814 | 151.02106 | 36090 ft | 413 kts | 208° |
| 2026-05-06 04:54 | -32.31154 | 150.99698 | 36090 ft | 413 kts | 208° |
| 2026-05-06 04:54 | -32.36526 | 150.97273 | 36090 ft | 414 kts | 208° |
| 2026-05-06 04:55 | -32.41869 | 150.94856 | 35496 ft | 416 kts | 208° |
| 2026-05-06 04:55 | -32.44573 | 150.93630 | 34625 ft | 422 kts | 208° |
| 2026-05-06 04:55 | -32.47325 | 150.92433 | 33593 ft | 426 kts | 204° |
| 2026-05-06 04:55 | -32.50251 | 150.91753 | 32140 ft | 443 kts | 192° |
| 2026-05-06 04:56 | -32.53346 | 150.91817 | 30560 ft | 459 kts | 180° |
| 2026-05-06 04:56 | -32.56448 | 150.92317 | 29247 ft | 458 kts | 178° |
| 2026-05-06 04:56 | -32.59560 | 150.92892 | 27993 ft | 454 kts | 178° |
| 2026-05-06 04:56 | -32.62632 | 150.93469 | 26932 ft | 444 kts | 177° |
| 2026-05-06 04:57 | -32.65616 | 150.94025 | 25965 ft | 433 kts | 178° |
| 2026-05-06 04:57 | -32.68547 | 150.94560 | 25322 ft | 415 kts | 178° |
| 2026-05-06 04:57 | -32.71318 | 150.95061 | 24678 ft | 400 kts | 178° |
| 2026-05-06 04:57 | -32.74019 | 150.95541 | 24224 ft | 392 kts | 178° |
| 2026-05-06 04:58 | -32.76716 | 150.96016 | 24087 ft | 390 kts | 178° |
| 2026-05-06 04:58 | -32.79374 | 150.96474 | 24084 ft | 386 kts | 180° |
| 2026-05-06 04:58 | -32.81968 | 150.96304 | 24061 ft | 368 kts | 202° |
| 2026-05-06 04:58 | -32.84174 | 150.94942 | 24082 ft | 353 kts | 223° |
| 2026-05-06 04:59 | -32.85811 | 150.92850 | 24083 ft | 345 kts | 239° |
| 2026-05-06 04:59 | -32.86799 | 150.90274 | 24084 ft | 342 kts | 255° |
| 2026-05-06 04:59 | -32.87055 | 150.87499 | 23907 ft | 340 kts | 271° |
| 2026-05-06 04:59 | -32.86561 | 150.84738 | 23104 ft | 349 kts | 288° |
| 2026-05-06 05:00 | -32.85296 | 150.82281 | 22069 ft | 359 kts | 307° |
| 2026-05-06 05:00 | -32.83360 | 150.80421 | 21127 ft | 367 kts | 326° |
| 2026-05-06 05:00 | -32.80921 | 150.79414 | 20472 ft | 372 kts | 343° |
| 2026-05-06 05:00 | -32.78376 | 150.78915 | 20139 ft | 372 kts | 346° |
| 2026-05-06 05:01 | -32.75808 | 150.78465 | 19881 ft | 374 kts | 346° |
| 2026-05-06 05:01 | -32.73251 | 150.78020 | 19255 ft | 369 kts | 346° |
| 2026-05-06 05:01 | -32.70742 | 150.77579 | 18628 ft | 363 kts | 347° |
| 2026-05-06 05:01 | -32.68208 | 150.77606 | 17979 ft | 366 kts | 7° |
| 2026-05-06 05:02 | -32.65850 | 150.78644 | 17356 ft | 369 kts | 28° |
| 2026-05-06 05:02 | -32.63911 | 150.80611 | 16726 ft | 367 kts | 50° |
| 2026-05-06 05:02 | -32.62669 | 150.83256 | 16091 ft | 361 kts | 72° |
| 2026-05-06 05:02 | -32.62274 | 150.86127 | 15468 ft | 352 kts | 94° |
| 2026-05-06 05:03 | -32.62694 | 150.88950 | 14835 ft | 340 kts | 114° |
| 2026-05-06 05:03 | -32.63793 | 150.91338 | 14213 ft | 327 kts | 133° |
| 2026-05-06 05:03 | -32.65418 | 150.93164 | 13582 ft | 315 kts | 150° |
| 2026-05-06 05:03 | -32.67333 | 150.94282 | 12959 ft | 305 kts | 167° |
| 2026-05-06 05:04 | -32.69373 | 150.94777 | 12338 ft | 298 kts | 175° |
| 2026-05-06 05:04 | -32.71399 | 150.95097 | 11715 ft | 295 kts | 176° |
| 2026-05-06 05:04 | -32.73436 | 150.95419 | 11234 ft | 289 kts | 175° |
| 2026-05-06 05:04 | -32.75401 | 150.95750 | 11084 ft | 287 kts | 175° |
| 2026-05-06 05:05 | -32.77378 | 150.96098 | 11083 ft | 288 kts | 174° |
| 2026-05-06 05:05 | -32.79387 | 150.96458 | 11022 ft | 292 kts | 174° |
| 2026-05-06 05:05 | -32.81458 | 150.96823 | 10766 ft | 308 kts | 174° |
| 2026-05-06 05:05 | -32.83547 | 150.97195 | 10497 ft | 302 kts | 174° |
| 2026-05-06 05:06 | -32.85604 | 150.97563 | 10180 ft | 296 kts | 173° |
| 2026-05-06 05:06 | -32.87620 | 150.97923 | 9917 ft | 289 kts | 173° |
| 2026-05-06 05:06 | -32.89582 | 150.98276 | 9733 ft | 279 kts | 173° |
| 2026-05-06 05:06 | -32.91480 | 150.98618 | 9608 ft | 275 kts | 173° |
| 2026-05-06 05:07 | -32.93386 | 150.98958 | 9481 ft | 275 kts | 173° |
| 2026-05-06 05:07 | -32.95277 | 150.99297 | 9356 ft | 274 kts | 173° |
| 2026-05-06 05:07 | -32.97157 | 150.99629 | 9232 ft | 273 kts | 173° |
| 2026-05-06 05:07 | -32.99035 | 150.99966 | 9106 ft | 273 kts | 173° |
| 2026-05-06 05:08 | -33.00934 | 151.00307 | 9017 ft | 272 kts | 173° |
| 2026-05-06 05:08 | -33.02812 | 151.00641 | 9014 ft | 273 kts | 173° |
| 2026-05-06 05:08 | -33.04678 | 151.00975 | 9012 ft | 273 kts | 173° |
| 2026-05-06 05:08 | -33.06576 | 151.01314 | 9010 ft | 273 kts | 173° |
| 2026-05-06 05:09 | -33.08449 | 151.01649 | 9010 ft | 273 kts | 173° |
| 2026-05-06 05:09 | -33.10332 | 151.01987 | 9011 ft | 273 kts | 173° |
| 2026-05-06 05:09 | -33.12223 | 151.02335 | 9001 ft | 286 kts | 174° |
| 2026-05-06 05:09 | -33.14226 | 151.02693 | 9007 ft | 292 kts | 174° |
| 2026-05-06 05:10 | -33.16242 | 151.03052 | 9008 ft | 292 kts | 174° |
| 2026-05-06 05:10 | -33.18261 | 151.03412 | 9009 ft | 293 kts | 174° |
| 2026-05-06 05:10 | -33.20270 | 151.03770 | 9009 ft | 295 kts | 174° |
| 2026-05-06 05:10 | -33.22305 | 151.04138 | 9010 ft | 293 kts | 174° |
| 2026-05-06 05:11 | -33.24332 | 151.04504 | 9010 ft | 293 kts | 174° |
| 2026-05-06 05:11 | -33.25418 | 151.04707 | 9010 ft | 294 kts | 174° |
| 2026-05-06 05:11 | -33.27377 | 151.05077 | 9017 ft | 280 kts | 172° |
| 2026-05-06 05:11 | -33.29264 | 151.05446 | 9014 ft | 273 kts | 172° |
| 2026-05-06 05:12 | -33.31134 | 151.05811 | 9012 ft | 273 kts | 172° |
| 2026-05-06 05:12 | -33.33018 | 151.06172 | 9012 ft | 273 kts | 172° |
| 2026-05-06 05:13 | -33.34199 | 151.06398 | 9010 ft | 272 kts | 172° |
| 2026-05-06 05:13 | -33.36064 | 151.06761 | 9010 ft | 273 kts | 172° |
| 2026-05-06 05:13 | -33.37940 | 151.07118 | 9010 ft | 272 kts | 172° |
| 2026-05-06 05:14 | -33.39800 | 151.07475 | 9010 ft | 272 kts | 172° |
| 2026-05-06 05:14 | -33.41661 | 151.07831 | 9010 ft | 272 kts | 172° |
| 2026-05-06 05:14 | -33.43529 | 151.08189 | 8976 ft | 269 kts | 172° |
| 2026-05-06 05:14 | -33.45369 | 151.08540 | 8642 ft | 267 kts | 172° |
| 2026-05-06 05:15 | -33.47199 | 151.08891 | 8202 ft | 268 kts | 171° |
| 2026-05-06 05:15 | -33.49020 | 151.09242 | 7817 ft | 267 kts | 171° |
| 2026-05-06 05:15 | -33.50851 | 151.09598 | 7435 ft | 265 kts | 171° |
| 2026-05-06 05:15 | -33.52667 | 151.09946 | 7051 ft | 264 kts | 171° |
| 2026-05-06 05:16 | -33.54453 | 151.10292 | 6673 ft | 263 kts | 171° |
| 2026-05-06 05:16 | -33.56249 | 151.10635 | 6290 ft | 262 kts | 170° |
| 2026-05-06 05:16 | -33.58034 | 151.10983 | 5910 ft | 261 kts | 171° |
| 2026-05-06 05:16 | -33.59824 | 151.11328 | 5532 ft | 259 kts | 171° |
| 2026-05-06 05:17 | -33.61586 | 151.11665 | 5162 ft | 258 kts | 170° |
| 2026-05-06 05:17 | -33.63337 | 151.12010 | 5029 ft | 257 kts | 170° |
| 2026-05-06 05:17 | -33.65105 | 151.12340 | 5025 ft | 258 kts | 174° |
| 2026-05-06 05:17 | -33.66915 | 151.12419 | 5026 ft | 258 kts | 179° |
| 2026-05-06 05:18 | -33.68687 | 151.12407 | 4854 ft | 254 kts | 179° |
| 2026-05-06 05:18 | -33.70442 | 151.12402 | 4565 ft | 249 kts | 179° |
| 2026-05-06 05:18 | -33.72138 | 151.12418 | 4324 ft | 244 kts | 178° |
| 2026-05-06 05:18 | -33.73820 | 151.12445 | 4003 ft | 242 kts | 177° |
| 2026-05-06 05:19 | -33.75490 | 151.12656 | 3508 ft | 247 kts | 168° |
| 2026-05-06 05:19 | -33.77173 | 151.13062 | 3149 ft | 246 kts | 167° |
| 2026-05-06 05:19 | -33.78818 | 151.13492 | 3024 ft | 234 kts | 167° |
| 2026-05-06 05:19 | -33.80363 | 151.13896 | 3012 ft | 223 kts | 167° |
| 2026-05-06 05:20 | -33.81884 | 151.14294 | 3013 ft | 222 kts | 167° |
| 2026-05-06 05:20 | -33.83390 | 151.14687 | 3011 ft | 222 kts | 167° |
| 2026-05-06 05:20 | -33.84885 | 151.15076 | 3040 ft | 218 kts | 167° |
| 2026-05-06 05:20 | -33.86285 | 151.15443 | 3249 ft | 193 kts | 166° |
| 2026-05-06 05:21 | -33.87586 | 151.15822 | 3040 ft | 189 kts | 165° |
| 2026-05-06 05:21 | -33.88856 | 151.16208 | 2197 ft | 203 kts | 165° |